Nearby METAR Reports

 

KSYN - Stanton, Minnesota, USA
Distance from station: NW 20mi, 33km
Updated: Sun, 26-Jan-2020 7:16pm CST
Overcast
Overcast
 Wind from ENE
Wind: ENE 5 mph , 7 km/h
Temperature: 27°F , -3°C
Wind Chill: 21°F , -6°C
Dew Point: 23°F , -5°C
Humidity: 86%
Barometer: 29.92 inHg , 1013.2 hPa
Clouds: Overcast
Visibility: 10 miles , 16 km
Cloud details: Overcast 1300 ft
2020/01/27 01:16 KSYN 270116Z AUTO 07004KT 10SM OVC013 M03/M05 A2992 RMK AO2 T10271048
KTOB - Dodge Center, Minnesota, USA
Distance from station: SSW 21mi, 34km
Updated: Sun, 26-Jan-2020 7:15pm CST
Overcast
Overcast
 Wind from calm
Wind: Calm
Temperature: 27°F , -3°C
Dew Point: 25°F , -4°C
Humidity: 93%
Barometer: 29.90 inHg , 1012.5 hPa
Clouds: Overcast
Visibility: 7 miles , 11 km
Cloud details: Overcast 700 ft
2020/01/27 01:15 KTOB 270115Z AUTO 00000KT 7SM OVC007 M03/M04 A2990 RMK AO2 PWINO
K9MN - St Mary Hospital, Minnesota, USA
Distance from station: SSE 22mi, 35km
Updated: Sun, 26-Jan-2020 7:15pm CST
Overcast
Overcast
 Wind from calm
Wind: Calm
Temperature: 28°F , -2°C
Dew Point: 25°F , -4°C
Humidity: 86%
Barometer: 29.92 inHg , 1013.2 hPa
Clouds: Overcast
Visibility: 10 miles , 16 km
Cloud details: Overcast 1600 ft
2020/01/27 01:15 K9MN 270115Z AUTO 00000KT 10SM OVC016 M02/M04 A2992 RMK AO1 T10221042
 
KRGK - Red Wing, Minnesota, USA
Distance from station: NNE 22mi, 35km
Updated: Sun, 26-Jan-2020 7:16pm CST
Overcast
Overcast
 Wind from NNE
Wind: NNE 3 mph , 6 km/h
Temperature: 27°F , -3°C
Dew Point: 23°F , -5°C
Humidity: 86%
Barometer: 29.93 inHg , 1013.5 hPa
Clouds: Overcast
Visibility: 7 miles , 11 km
Cloud details: Overcast 1400 ft
2020/01/27 01:16 KRGK 270116Z AUTO 02003KT 7SM OVC014 M03/M05 A2993 RMK AO2
KRST - Rochester, Minnesota, USA
Distance from station: SSE 29mi, 47km
Updated: Sun, 26-Jan-2020 6:54pm CST
Overcast
Overcast
 Wind from calm
Wind: Calm
Temperature: 27°F , -3°C
Dew Point: 21°F , -6°C
Humidity: 80%
Barometer: 29.90 inHg , 1012.5 hPa
Clouds: Overcast
Visibility: 10 miles , 16 km
Cloud details: Overcast 1000 ft
2020/01/27 00:54 KRST 270054Z 00000KT 10SM OVC010 M03/M06 A2990 RMK AO2 SLP145 T10331061
KOWA - Owatonna, Minnesota, USA
Distance from station: WSW 31mi, 50km
Updated: Sun, 26-Jan-2020 7:13pm CST
Mist, Overcast
Mist, Overcast
 Wind from calm
Wind: Calm
Temperature: 27°F , -3°C
Dew Point: 27°F , -3°C
Humidity: 100%
Barometer: 29.90 inHg , 1012.5 hPa
Summary: Mist
Clouds: Overcast
Visibility: 3/4 mile , 1.2 km
Cloud details: Overcast 200 ft
2020/01/27 01:13 KOWA 270113Z AUTO 00000KT 3/4SM BR OVC002 M03/M03 A2990 RMK AO2
 
KFBL - Faribault Muni, Minnesota, USA
Distance from station: W 32mi, 51km
Updated: Sun, 26-Jan-2020 7:16pm CST
Partly cloudy
Partly cloudy
 Wind from calm
Wind: Calm
Temperature: 28°F , -2°C
Dew Point: 27°F , -3°C
Humidity: 93%
Barometer: 29.92 inHg , 1013.2 hPa
Clouds: Partly cloudy
Visibility: 10 miles , 16 km
Cloud details: Partly cloudy 1200 ft
2020/01/27 01:16 KFBL 270116Z AUTO 00000KT 10SM SCT012 M02/M03 A2992 RMK AO2
KSGS - South St Paul, Minnesota, USA
Distance from station: NNW 43mi, 69km
Updated: Sun, 26-Jan-2020 7:16pm CST
Mostly cloudy
Mostly cloudy
 Wind from NE
Wind: NE 3 mph , 6 km/h
Temperature: 28°F , -2°C
Dew Point: 25°F , -4°C
Humidity: 86%
Barometer: 29.93 inHg , 1013.5 hPa
Clouds: Mostly cloudy
Visibility: 7 miles , 11 km
Cloud details: Mostly cloudy 900 ft
2020/01/27 01:16 KSGS 270116Z AUTO 05003KT 7SM BKN009 M02/M04 A2993 RMK AO2 T10251038
KAUM - Austin Muni, Minnesota, USA
Distance from station: SSW 46mi, 73km
Updated: Sun, 26-Jan-2020 7:16pm CST
Mist, Overcast
Mist, Overcast
 Wind from calm
Wind: Calm
Temperature: 28°F , -2°C
Dew Point: 28°F , -2°C
Humidity: 100%
Barometer: 29.90 inHg , 1012.5 hPa
Summary: Mist
Clouds: Overcast
Visibility: 1 3/4 miles , 2.8 km
Cloud details: Overcast 200 ft
2020/01/27 01:16 KAUM 270116Z AUTO 00000KT 1 3/4SM BR OVC002 M02/M02 A2990 RMK AO2
 
KACQ - Waseca, Minnesota, USA
Distance from station: WSW 46mi, 75km
Updated: Sun, 26-Jan-2020 6:59pm CST
Freezing fog, Overcast
Freezing fog, Overcast
 Wind from calm
Wind: Calm
Temperature: 27°F , -3°C
Dew Point: 25°F , -4°C
Humidity: 93%
Barometer: 29.91 inHg , 1012.9 hPa
Summary: Freezing Fog
Clouds: Overcast
Visibility: 1/2 mile , 0.8 km
Cloud details: Overcast 200 ft
2020/01/27 00:59 KACQ 270059Z AUTO 00000KT 1/2SM FZFG OVC002 M03/M04 A2991 RMK AO2
KSTP - St. Paul, Minnesota, USA
Distance from station: NNW 47mi, 76km
Updated: Sun, 26-Jan-2020 6:53pm CST
Mist, Overcast
Mist, Overcast
 Wind from NE
Wind: NE 7 mph , 11 km/h
Temperature: 27°F , -3°C
Wind Chill: 19°F , -7°C
Dew Point: 23°F , -5°C
Humidity: 86%
Barometer: 29.95 inHg , 1014.2 hPa
Summary: Mist
Clouds: Overcast
Visibility: 6 miles , 10 km
Cloud details: Overcast 900 ft
2020/01/27 00:53 KSTP 270053Z 04006KT 6SM BR OVC009 M03/M05 A2995 RMK AO2 SLP149 T10281050
KMSP - Minneapolis, Minnesota, USA
Distance from station: NW 49mi, 78km
Updated: Sun, 26-Jan-2020 7:21pm CST
Mist, Overcast
Mist, Overcast
 Wind from ENE
Wind: ENE 7 mph , 11 km/h
Temperature: 28°F , -2°C
Wind Chill: 21°F , -6°C
Dew Point: 25°F , -4°C
Humidity: 86%
Barometer: 29.93 inHg , 1013.5 hPa
Summary: Mist
Clouds: Overcast
Visibility: 5 miles , 8 km
Cloud details: Overcast 900 ft
2020/01/27 01:21 KMSP 270121Z 06006KT 5SM BR OVC009 M02/M04 A2993 RMK AO2 T10221044